KIKK

Details ICAO KIKK (IKK)
Name GREATER KANKAKEE
Region United States
Timezone America/Chicago (UTC-6.0)
Plans Departing 11
Arriving 16
Stats Elevation 630 ft / 192 m (AMSL)
Location 41.071252° -87.845900°
Runways 2
Magnetic Variation 3.640° W
Sunrise 2017-12-11 13:08:02 UTC / 2017-12-11 07:08:02 Local
Sunset 2017-12-11 22:24:22 UTC / 2017-12-11 16:24:22 Local
Advertisement - Login to hide

Runways

ID Width Length Bearing (true) Bearing (mag) Surface Threshold Offset Overrun Length
04 100 ft / 30 m 5,961 ft / 1,817 m 37.98° 41.62° Asphalt 0 ft / 0 m 0 ft / 0 m
16 75 ft / 23 m 4,403 ft / 1,342 m 161.13° 164.77° Asphalt 0 ft / 0 m 0 ft / 0 m
22 100 ft / 30 m 5,961 ft / 1,817 m 217.99° 221.63° Asphalt 0 ft / 0 m 0 ft / 0 m
34 75 ft / 23 m 4,403 ft / 1,342 m 341.14° 344.78° Asphalt 0 ft / 0 m 0 ft / 0 m

Map

Weather


0- 5 10 15 20 25 30 35+ Temperature / ° C

Clouds and Precipitation
Forecast for 2017-12-12 00:00 UTC. Updated 3 minutes ago

Ground ~20,000 ft ~40,000 ft Winds

METAR

KIKK 111915Z AUTO 13012KT 10SM CLR 06/M02 A2968 RMK AO2 T00581025

TAF

Not found

Frequencies

Unicom 123.00 MHz CTAF/UNICOM
Warning: Do not use this data for real-world aviation or navigation. No guarantee of current accuracy is given.